aviador You're here:

UUEE Decoded Metar

MOSCOW/SHEREMETYEVO in RUSSIA
Report Time2018-01-19 17:00:00
UTC Time2018-01-19 17:17:57
Flight Rules vfr VFR
Wind120° at 16 kt
W.Decomp.*RWY 07: 12.3 kt HW 10.3 kt RCW
W.Rank120° ranks 32
Current wind is above 120° avg. (8.0)
Visibility9999 m
Phenomena:N/A
Clouds:Broken 034 Hf
Expected CloudBase > 2,800 ft AGL from Temp-Dew spread
Ceiling3,400 ft
Temp-8°C (ISA -22)
Dew Point-15°C (58% RH)
AAT-17.1°C
QNH1013 hPa
Density Alt-2,054 ft
Elevation623 ft
Report Wrong Elevation
Raw Report
METAR UUEE 191700Z 12008MPS 9999 BKN034 M08/M15 Q1013 R06L/450251 R06R/450251
NOSIG=

Extra information for UUEE:More info

Metar Taf Metar & Taf Last 4 Metars F.Rules Stats Wind Profile Meteogram Temp Stats Airport Information Weather charts Add Link Nearby VenuesMetar ALERT Operation Metar Decoded Social comments